sensor_id;sensor_type;location;lat;lon;timestamp;P1;durP1;ratioP1;P2;durP2;ratioP2
25627;SDS011;40915;50.826;4.356;2024-02-16T00:00:15;3.00;;;1.85;;
25627;SDS011;40915;50.826;4.356;2024-02-16T00:02:44;3.35;;;2.00;;
25627;SDS011;40915;50.826;4.356;2024-02-16T00:05:10;4.68;;;2.30;;
25627;SDS011;40915;50.826;4.356;2024-02-16T00:07:39;5.28;;;2.20;;
25627;SDS011;40915;50.826;4.356;2024-02-16T00:10:05;2.65;;;1.70;;
25627;SDS011;40915;50.826;4.356;2024-02-16T00:12:32;5.68;;;1.80;;
25627;SDS011;40915;50.826;4.356;2024-02-16T00:14:58;3.35;;;2.28;;
25627;SDS011;40915;50.826;4.356;2024-02-16T00:17:24;5.22;;;2.17;;
25627;SDS011;40915;50.826;4.356;2024-02-16T00:19:55;4.38;;;2.00;;
25627;SDS011;40915;50.826;4.356;2024-02-16T00:22:21;2.88;;;1.90;;
25627;SDS011;40915;50.826;4.356;2024-02-16T00:24:46;2.15;;;1.60;;
25627;SDS011;40915;50.826;4.356;2024-02-16T00:27:13;4.00;;;2.10;;
25627;SDS011;40915;50.826;4.356;2024-02-16T00:29:39;3.90;;;2.00;;
25627;SDS011;40915;50.826;4.356;2024-02-16T00:32:04;4.32;;;1.92;;
25627;SDS011;40915;50.826;4.356;2024-02-16T00:34:35;2.35;;;1.77;;
25627;SDS011;40915;50.826;4.356;2024-02-16T00:37:01;5.20;;;2.22;;
25627;SDS011;40915;50.826;4.356;2024-02-16T00:39:29;2.67;;;1.77;;
25627;SDS011;40915;50.826;4.356;2024-02-16T00:41:54;3.13;;;1.90;;
25627;SDS011;40915;50.826;4.356;2024-02-16T00:44:22;3.38;;;1.98;;
25627;SDS011;40915;50.826;4.356;2024-02-16T00:46:47;6.35;;;2.30;;
25627;SDS011;40915;50.826;4.356;2024-02-16T00:49:13;3.15;;;1.92;;
25627;SDS011;40915;50.826;4.356;2024-02-16T00:51:40;3.58;;;2.00;;
25627;SDS011;40915;50.826;4.356;2024-02-16T00:54:06;4.97;;;2.47;;
25627;SDS011;40915;50.826;4.356;2024-02-16T00:56:32;5.80;;;1.92;;
25627;SDS011;40915;50.826;4.356;2024-02-16T00:58:58;4.15;;;2.08;;
25627;SDS011;40915;50.826;4.356;2024-02-16T01:01:23;2.83;;;1.85;;
25627;SDS011;40915;50.826;4.356;2024-02-16T01:03:51;3.50;;;1.88;;
25627;SDS011;40915;50.826;4.356;2024-02-16T01:06:17;2.25;;;1.75;;
25627;SDS011;40915;50.826;4.356;2024-02-16T01:08:43;4.65;;;2.15;;
25627;SDS011;40915;50.826;4.356;2024-02-16T01:11:09;5.45;;;1.90;;
25627;SDS011;40915;50.826;4.356;2024-02-16T01:13:35;3.00;;;1.98;;
25627;SDS011;40915;50.826;4.356;2024-02-16T01:16:00;7.18;;;2.80;;
25627;SDS011;40915;50.826;4.356;2024-02-16T01:18:27;5.28;;;2.03;;
25627;SDS011;40915;50.826;4.356;2024-02-16T01:20:54;3.97;;;2.00;;
25627;SDS011;40915;50.826;4.356;2024-02-16T01:23:20;4.47;;;2.15;;
25627;SDS011;40915;50.826;4.356;2024-02-16T01:25:45;5.82;;;2.47;;
25627;SDS011;40915;50.826;4.356;2024-02-16T01:28:12;5.93;;;2.10;;
25627;SDS011;40915;50.826;4.356;2024-02-16T01:30:38;6.05;;;2.55;;
25627;SDS011;40915;50.826;4.356;2024-02-16T01:33:05;3.83;;;2.40;;
25627;SDS011;40915;50.826;4.356;2024-02-16T01:35:32;5.28;;;2.17;;
25627;SDS011;40915;50.826;4.356;2024-02-16T01:37:58;6.30;;;2.40;;
25627;SDS011;40915;50.826;4.356;2024-02-16T01:40:23;3.83;;;2.00;;
25627;SDS011;40915;50.826;4.356;2024-02-16T01:42:51;3.17;;;1.98;;
25627;SDS011;40915;50.826;4.356;2024-02-16T01:45:18;3.75;;;2.30;;
25627;SDS011;40915;50.826;4.356;2024-02-16T01:47:44;5.07;;;2.55;;
25627;SDS011;40915;50.826;4.356;2024-02-16T01:50:12;4.25;;;2.35;;
25627;SDS011;40915;50.826;4.356;2024-02-16T01:52:40;3.78;;;1.95;;
25627;SDS011;40915;50.826;4.356;2024-02-16T01:55:07;4.32;;;2.05;;
25627;SDS011;40915;50.826;4.356;2024-02-16T01:57:35;4.95;;;2.38;;
25627;SDS011;40915;50.826;4.356;2024-02-16T02:00:01;3.72;;;2.15;;
25627;SDS011;40915;50.826;4.356;2024-02-16T02:02:28;3.78;;;2.20;;
25627;SDS011;40915;50.826;4.356;2024-02-16T02:04:53;3.25;;;2.10;;
25627;SDS011;40915;50.826;4.356;2024-02-16T02:07:24;2.72;;;2.03;;
25627;SDS011;40915;50.826;4.356;2024-02-16T02:09:51;4.05;;;2.33;;
25627;SDS011;40915;50.826;4.356;2024-02-16T02:12:16;7.57;;;2.28;;
25627;SDS011;40915;50.826;4.356;2024-02-16T02:14:43;4.20;;;2.10;;
25627;SDS011;40915;50.826;4.356;2024-02-16T02:17:09;6.43;;;2.22;;
25627;SDS011;40915;50.826;4.356;2024-02-16T02:19:35;4.38;;;2.38;;
25627;SDS011;40915;50.826;4.356;2024-02-16T02:22:01;4.10;;;2.10;;
25627;SDS011;40915;50.826;4.356;2024-02-16T02:24:26;3.47;;;2.05;;
25627;SDS011;40915;50.826;4.356;2024-02-16T02:26:52;4.72;;;2.30;;
25627;SDS011;40915;50.826;4.356;2024-02-16T02:29:18;3.83;;;2.05;;
25627;SDS011;40915;50.826;4.356;2024-02-16T02:31:45;4.95;;;2.45;;
25627;SDS011;40915;50.826;4.356;2024-02-16T02:34:10;4.57;;;2.17;;
25627;SDS011;40915;50.826;4.356;2024-02-16T02:36:36;3.65;;;2.13;;
25627;SDS011;40915;50.826;4.356;2024-02-16T02:39:02;6.13;;;2.42;;
25627;SDS011;40915;50.826;4.356;2024-02-16T02:41:27;4.40;;;1.92;;
25627;SDS011;40915;50.826;4.356;2024-02-16T02:43:53;5.85;;;2.45;;
25627;SDS011;40915;50.826;4.356;2024-02-16T02:46:19;3.00;;;2.40;;
25627;SDS011;40915;50.826;4.356;2024-02-16T02:48:45;3.67;;;2.03;;
25627;SDS011;40915;50.826;4.356;2024-02-16T02:51:11;5.38;;;2.00;;
25627;SDS011;40915;50.826;4.356;2024-02-16T02:53:37;4.68;;;2.30;;
25627;SDS011;40915;50.826;4.356;2024-02-16T02:56:03;4.85;;;2.05;;
25627;SDS011;40915;50.826;4.356;2024-02-16T02:58:29;5.05;;;1.95;;
25627;SDS011;40915;50.826;4.356;2024-02-16T03:00:55;4.45;;;2.30;;
25627;SDS011;40915;50.826;4.356;2024-02-16T03:03:21;4.80;;;2.40;;
25627;SDS011;40915;50.826;4.356;2024-02-16T03:05:47;5.32;;;2.13;;
25627;SDS011;40915;50.826;4.356;2024-02-16T03:08:13;3.70;;;2.00;;
25627;SDS011;40915;50.826;4.356;2024-02-16T03:10:39;6.40;;;2.90;;
25627;SDS011;40915;50.826;4.356;2024-02-16T03:13:05;3.20;;;2.38;;
25627;SDS011;40915;50.826;4.356;2024-02-16T03:15:32;4.03;;;1.92;;
25627;SDS011;40915;50.826;4.356;2024-02-16T03:17:58;4.68;;;2.35;;
25627;SDS011;40915;50.826;4.356;2024-02-16T03:20:24;5.15;;;2.60;;
25627;SDS011;40915;50.826;4.356;2024-02-16T03:22:50;4.88;;;2.10;;
25627;SDS011;40915;50.826;4.356;2024-02-16T03:25:16;4.00;;;2.30;;
25627;SDS011;40915;50.826;4.356;2024-02-16T03:27:42;8.10;;;2.33;;
25627;SDS011;40915;50.826;4.356;2024-02-16T03:30:08;4.60;;;2.17;;
25627;SDS011;40915;50.826;4.356;2024-02-16T03:32:34;4.57;;;2.45;;
25627;SDS011;40915;50.826;4.356;2024-02-16T03:35:00;5.55;;;2.40;;
25627;SDS011;40915;50.826;4.356;2024-02-16T03:37:25;5.82;;;2.35;;
25627;SDS011;40915;50.826;4.356;2024-02-16T03:39:51;4.15;;;2.30;;
25627;SDS011;40915;50.826;4.356;2024-02-16T03:42:18;5.45;;;2.50;;
25627;SDS011;40915;50.826;4.356;2024-02-16T03:44:44;5.40;;;2.28;;
25627;SDS011;40915;50.826;4.356;2024-02-16T03:47:10;4.50;;;2.35;;
25627;SDS011;40915;50.826;4.356;2024-02-16T03:49:36;4.18;;;2.10;;
25627;SDS011;40915;50.826;4.356;2024-02-16T03:52:02;5.95;;;2.65;;
25627;SDS011;40915;50.826;4.356;2024-02-16T03:54:28;4.88;;;2.40;;
25627;SDS011;40915;50.826;4.356;2024-02-16T03:56:54;5.22;;;2.35;;
25627;SDS011;40915;50.826;4.356;2024-02-16T03:59:20;2.90;;;1.85;;
25627;SDS011;40915;50.826;4.356;2024-02-16T04:01:46;6.43;;;2.40;;
25627;SDS011;40915;50.826;4.356;2024-02-16T04:04:12;5.00;;;2.60;;
25627;SDS011;40915;50.826;4.356;2024-02-16T04:06:38;4.55;;;2.70;;
25627;SDS011;40915;50.826;4.356;2024-02-16T04:09:04;4.07;;;2.22;;
25627;SDS011;40915;50.826;4.356;2024-02-16T04:11:33;4.78;;;2.47;;
25627;SDS011;40915;50.826;4.356;2024-02-16T04:13:59;5.30;;;2.00;;
25627;SDS011;40915;50.826;4.356;2024-02-16T04:16:25;4.50;;;2.20;;
25627;SDS011;40915;50.826;4.356;2024-02-16T04:18:51;5.75;;;2.20;;
25627;SDS011;40915;50.826;4.356;2024-02-16T04:21:16;3.78;;;2.17;;
25627;SDS011;40915;50.826;4.356;2024-02-16T04:23:43;4.53;;;2.28;;
25627;SDS011;40915;50.826;4.356;2024-02-16T04:26:09;6.68;;;2.45;;
25627;SDS011;40915;50.826;4.356;2024-02-16T04:28:35;6.90;;;2.40;;
25627;SDS011;40915;50.826;4.356;2024-02-16T04:31:01;3.85;;;2.35;;
25627;SDS011;40915;50.826;4.356;2024-02-16T04:33:27;4.53;;;2.50;;
25627;SDS011;40915;50.826;4.356;2024-02-16T04:35:52;5.88;;;2.15;;
25627;SDS011;40915;50.826;4.356;2024-02-16T04:38:18;4.20;;;2.58;;
25627;SDS011;40915;50.826;4.356;2024-02-16T04:40:44;4.75;;;2.20;;
25627;SDS011;40915;50.826;4.356;2024-02-16T04:43:10;6.18;;;2.75;;
25627;SDS011;40915;50.826;4.356;2024-02-16T04:45:35;5.00;;;2.58;;
25627;SDS011;40915;50.826;4.356;2024-02-16T04:48:04;4.53;;;2.42;;
25627;SDS011;40915;50.826;4.356;2024-02-16T04:50:33;3.78;;;2.40;;
25627;SDS011;40915;50.826;4.356;2024-02-16T04:53:00;3.53;;;2.17;;
25627;SDS011;40915;50.826;4.356;2024-02-16T04:55:29;4.80;;;2.38;;
25627;SDS011;40915;50.826;4.356;2024-02-16T04:57:55;5.53;;;2.22;;
25627;SDS011;40915;50.826;4.356;2024-02-16T05:00:22;5.60;;;2.42;;
25627;SDS011;40915;50.826;4.356;2024-02-16T05:02:47;3.42;;;2.30;;
25627;SDS011;40915;50.826;4.356;2024-02-16T05:05:13;3.95;;;2.55;;
25627;SDS011;40915;50.826;4.356;2024-02-16T05:07:40;5.97;;;2.30;;
25627;SDS011;40915;50.826;4.356;2024-02-16T05:10:10;8.55;;;2.72;;
25627;SDS011;40915;50.826;4.356;2024-02-16T05:12:36;5.35;;;2.13;;
25627;SDS011;40915;50.826;4.356;2024-02-16T05:15:02;5.72;;;2.38;;
25627;SDS011;40915;50.826;4.356;2024-02-16T05:17:28;3.55;;;2.30;;
25627;SDS011;40915;50.826;4.356;2024-02-16T05:19:54;5.32;;;2.40;;
25627;SDS011;40915;50.826;4.356;2024-02-16T05:22:20;7.53;;;2.60;;
25627;SDS011;40915;50.826;4.356;2024-02-16T05:24:46;5.32;;;2.53;;
25627;SDS011;40915;50.826;4.356;2024-02-16T05:27:12;5.18;;;2.58;;
25627;SDS011;40915;50.826;4.356;2024-02-16T05:29:38;5.45;;;2.58;;
25627;SDS011;40915;50.826;4.356;2024-02-16T05:32:04;5.50;;;2.70;;
25627;SDS011;40915;50.826;4.356;2024-02-16T05:34:30;5.50;;;3.10;;
25627;SDS011;40915;50.826;4.356;2024-02-16T05:37:02;7.80;;;2.53;;
25627;SDS011;40915;50.826;4.356;2024-02-16T05:39:29;7.30;;;3.17;;
25627;SDS011;40915;50.826;4.356;2024-02-16T05:41:57;5.53;;;2.65;;
25627;SDS011;40915;50.826;4.356;2024-02-16T05:44:22;8.30;;;2.95;;
25627;SDS011;40915;50.826;4.356;2024-02-16T05:46:48;9.38;;;2.97;;
25627;SDS011;40915;50.826;4.356;2024-02-16T05:49:14;7.18;;;3.00;;
25627;SDS011;40915;50.826;4.356;2024-02-16T05:51:41;9.60;;;2.85;;
25627;SDS011;40915;50.826;4.356;2024-02-16T05:54:07;9.52;;;2.70;;
25627;SDS011;40915;50.826;4.356;2024-02-16T05:56:33;5.65;;;2.90;;
25627;SDS011;40915;50.826;4.356;2024-02-16T05:58:59;9.50;;;2.83;;
25627;SDS011;40915;50.826;4.356;2024-02-16T06:01:25;4.57;;;3.03;;
25627;SDS011;40915;50.826;4.356;2024-02-16T06:03:52;6.82;;;3.05;;
25627;SDS011;40915;50.826;4.356;2024-02-16T06:06:18;6.00;;;2.60;;
25627;SDS011;40915;50.826;4.356;2024-02-16T06:08:43;6.60;;;3.13;;
25627;SDS011;40915;50.826;4.356;2024-02-16T06:11:09;6.57;;;3.30;;
25627;SDS011;40915;50.826;4.356;2024-02-16T06:13:35;5.53;;;3.00;;
25627;SDS011;40915;50.826;4.356;2024-02-16T06:16:00;8.80;;;3.17;;
25627;SDS011;40915;50.826;4.356;2024-02-16T06:18:27;6.40;;;3.30;;
25627;SDS011;40915;50.826;4.356;2024-02-16T06:20:54;4.93;;;2.95;;
25627;SDS011;40915;50.826;4.356;2024-02-16T06:23:20;6.22;;;3.13;;
25627;SDS011;40915;50.826;4.356;2024-02-16T06:25:46;7.82;;;3.83;;
25627;SDS011;40915;50.826;4.356;2024-02-16T06:28:11;10.77;;;3.70;;
25627;SDS011;40915;50.826;4.356;2024-02-16T06:30:37;7.63;;;3.55;;
25627;SDS011;40915;50.826;4.356;2024-02-16T06:33:02;7.55;;;3.60;;
25627;SDS011;40915;50.826;4.356;2024-02-16T06:35:29;6.70;;;3.22;;
25627;SDS011;40915;50.826;4.356;2024-02-16T06:37:55;6.35;;;3.70;;
25627;SDS011;40915;50.826;4.356;2024-02-16T06:40:21;7.53;;;3.90;;
25627;SDS011;40915;50.826;4.356;2024-02-16T06:42:46;9.18;;;3.55;;
25627;SDS011;40915;50.826;4.356;2024-02-16T06:45:12;6.80;;;3.20;;
25627;SDS011;40915;50.826;4.356;2024-02-16T06:47:37;5.97;;;3.72;;
25627;SDS011;40915;50.826;4.356;2024-02-16T06:50:03;6.22;;;3.30;;
25627;SDS011;40915;50.826;4.356;2024-02-16T06:52:29;8.70;;;4.00;;
25627;SDS011;40915;50.826;4.356;2024-02-16T06:54:55;7.88;;;3.53;;
25627;SDS011;40915;50.826;4.356;2024-02-16T06:57:20;8.32;;;3.70;;
25627;SDS011;40915;50.826;4.356;2024-02-16T06:59:46;6.65;;;3.60;;
25627;SDS011;40915;50.826;4.356;2024-02-16T07:02:12;8.05;;;4.00;;
25627;SDS011;40915;50.826;4.356;2024-02-16T07:04:40;7.63;;;3.97;;
25627;SDS011;40915;50.826;4.356;2024-02-16T07:07:05;6.30;;;3.80;;
25627;SDS011;40915;50.826;4.356;2024-02-16T07:09:31;7.10;;;3.83;;
25627;SDS011;40915;50.826;4.356;2024-02-16T07:11:57;7.72;;;4.57;;
25627;SDS011;40915;50.826;4.356;2024-02-16T07:14:23;10.38;;;4.57;;
25627;SDS011;40915;50.826;4.356;2024-02-16T07:16:49;9.05;;;4.70;;
25627;SDS011;40915;50.826;4.356;2024-02-16T07:19:15;12.10;;;4.18;;
25627;SDS011;40915;50.826;4.356;2024-02-16T07:21:41;10.32;;;4.30;;
25627;SDS011;40915;50.826;4.356;2024-02-16T07:24:06;8.52;;;3.92;;
25627;SDS011;40915;50.826;4.356;2024-02-16T07:26:33;9.88;;;4.80;;
25627;SDS011;40915;50.826;4.356;2024-02-16T07:28:59;9.80;;;4.50;;
25627;SDS011;40915;50.826;4.356;2024-02-16T07:31:24;9.57;;;4.90;;
25627;SDS011;40915;50.826;4.356;2024-02-16T07:33:50;9.85;;;4.38;;
25627;SDS011;40915;50.826;4.356;2024-02-16T07:36:16;9.82;;;4.80;;
25627;SDS011;40915;50.826;4.356;2024-02-16T07:38:44;11.48;;;5.25;;
25627;SDS011;40915;50.826;4.356;2024-02-16T07:41:09;8.85;;;4.68;;
25627;SDS011;40915;50.826;4.356;2024-02-16T07:43:35;7.60;;;4.45;;
25627;SDS011;40915;50.826;4.356;2024-02-16T07:46:01;12.77;;;5.22;;
25627;SDS011;40915;50.826;4.356;2024-02-16T07:48:28;12.15;;;5.45;;
25627;SDS011;40915;50.826;4.356;2024-02-16T07:50:54;12.40;;;5.40;;
25627;SDS011;40915;50.826;4.356;2024-02-16T07:53:23;11.20;;;5.80;;
25627;SDS011;40915;50.826;4.356;2024-02-16T07:55:48;11.05;;;5.53;;
25627;SDS011;40915;50.826;4.356;2024-02-16T07:58:14;10.77;;;5.78;;
25627;SDS011;40915;50.826;4.356;2024-02-16T08:00:40;12.85;;;5.55;;
25627;SDS011;40915;50.826;4.356;2024-02-16T08:03:06;12.32;;;5.50;;
25627;SDS011;40915;50.826;4.356;2024-02-16T08:05:31;12.75;;;5.63;;
25627;SDS011;40915;50.826;4.356;2024-02-16T08:07:57;8.98;;;4.82;;
25627;SDS011;40915;50.826;4.356;2024-02-16T08:10:23;10.50;;;5.05;;
25627;SDS011;40915;50.826;4.356;2024-02-16T08:12:50;9.90;;;4.72;;
25627;SDS011;40915;50.826;4.356;2024-02-16T08:15:16;12.57;;;4.78;;
25627;SDS011;40915;50.826;4.356;2024-02-16T08:17:47;11.82;;;7.03;;
25627;SDS011;40915;50.826;4.356;2024-02-16T08:20:13;11.82;;;4.65;;
25627;SDS011;40915;50.826;4.356;2024-02-16T08:22:40;10.02;;;4.82;;
25627;SDS011;40915;50.826;4.356;2024-02-16T08:25:06;10.10;;;4.50;;
25627;SDS011;40915;50.826;4.356;2024-02-16T08:27:32;11.93;;;5.13;;
25627;SDS011;40915;50.826;4.356;2024-02-16T08:29:58;9.88;;;5.28;;
25627;SDS011;40915;50.826;4.356;2024-02-16T08:32:24;10.95;;;5.00;;
25627;SDS011;40915;50.826;4.356;2024-02-16T08:34:49;10.05;;;4.90;;
25627;SDS011;40915;50.826;4.356;2024-02-16T08:37:15;12.38;;;6.05;;
25627;SDS011;40915;50.826;4.356;2024-02-16T08:39:41;10.07;;;5.32;;
25627;SDS011;40915;50.826;4.356;2024-02-16T08:42:07;9.65;;;5.25;;
25627;SDS011;40915;50.826;4.356;2024-02-16T08:44:39;12.02;;;5.45;;
25627;SDS011;40915;50.826;4.356;2024-02-16T08:47:05;11.13;;;5.90;;
25627;SDS011;40915;50.826;4.356;2024-02-16T08:49:32;12.82;;;5.38;;
25627;SDS011;40915;50.826;4.356;2024-02-16T08:51:58;12.00;;;5.78;;
25627;SDS011;40915;50.826;4.356;2024-02-16T08:54:24;14.43;;;6.10;;
25627;SDS011;40915;50.826;4.356;2024-02-16T08:56:50;13.50;;;5.95;;
25627;SDS011;40915;50.826;4.356;2024-02-16T08:59:16;11.30;;;5.90;;
25627;SDS011;40915;50.826;4.356;2024-02-16T09:01:42;14.60;;;6.35;;
25627;SDS011;40915;50.826;4.356;2024-02-16T09:04:08;14.40;;;6.93;;
25627;SDS011;40915;50.826;4.356;2024-02-16T09:06:33;17.95;;;6.68;;
25627;SDS011;40915;50.826;4.356;2024-02-16T09:09:03;14.15;;;6.47;;
25627;SDS011;40915;50.826;4.356;2024-02-16T09:11:29;16.42;;;6.80;;
25627;SDS011;40915;50.826;4.356;2024-02-16T09:13:55;16.30;;;7.63;;
25627;SDS011;40915;50.826;4.356;2024-02-16T09:16:21;12.52;;;6.63;;
25627;SDS011;40915;50.826;4.356;2024-02-16T09:18:46;11.77;;;5.90;;
25627;SDS011;40915;50.826;4.356;2024-02-16T09:21:15;16.02;;;6.60;;
25627;SDS011;40915;50.826;4.356;2024-02-16T09:23:41;13.52;;;6.57;;
25627;SDS011;40915;50.826;4.356;2024-02-16T09:26:07;12.60;;;6.68;;
25627;SDS011;40915;50.826;4.356;2024-02-16T09:28:38;10.75;;;5.80;;
25627;SDS011;40915;50.826;4.356;2024-02-16T09:31:06;12.45;;;6.18;;
25627;SDS011;40915;50.826;4.356;2024-02-16T09:33:33;12.90;;;6.53;;
25627;SDS011;40915;50.826;4.356;2024-02-16T09:35:58;13.63;;;6.25;;
25627;SDS011;40915;50.826;4.356;2024-02-16T09:38:24;15.52;;;6.53;;
25627;SDS011;40915;50.826;4.356;2024-02-16T09:40:50;13.57;;;6.32;;
25627;SDS011;40915;50.826;4.356;2024-02-16T09:43:26;10.85;;;5.78;;
25627;SDS011;40915;50.826;4.356;2024-02-16T09:45:54;14.93;;;6.55;;
25627;SDS011;40915;50.826;4.356;2024-02-16T09:48:21;15.32;;;6.40;;
25627;SDS011;40915;50.826;4.356;2024-02-16T09:50:47;12.43;;;6.00;;
25627;SDS011;40915;50.826;4.356;2024-02-16T09:53:16;12.25;;;6.03;;
25627;SDS011;40915;50.826;4.356;2024-02-16T09:55:43;12.18;;;5.88;;
25627;SDS011;40915;50.826;4.356;2024-02-16T09:58:09;11.27;;;5.60;;
25627;SDS011;40915;50.826;4.356;2024-02-16T10:00:41;10.57;;;5.45;;
25627;SDS011;40915;50.826;4.356;2024-02-16T10:03:07;11.82;;;6.10;;
25627;SDS011;40915;50.826;4.356;2024-02-16T10:05:35;13.10;;;4.75;;
25627;SDS011;40915;50.826;4.356;2024-02-16T10:08:10;9.35;;;5.43;;
25627;SDS011;40915;50.826;4.356;2024-02-16T10:10:37;10.65;;;5.35;;
25627;SDS011;40915;50.826;4.356;2024-02-16T10:13:02;10.13;;;4.75;;
25627;SDS011;40915;50.826;4.356;2024-02-16T10:15:33;10.73;;;4.95;;
25627;SDS011;40915;50.826;4.356;2024-02-16T10:18:00;10.95;;;5.00;;
25627;SDS011;40915;50.826;4.356;2024-02-16T10:20:26;10.52;;;4.97;;
25627;SDS011;40915;50.826;4.356;2024-02-16T10:25:51;10.45;;;5.38;;
25627;SDS011;40915;50.826;4.356;2024-02-16T10:28:16;11.82;;;5.28;;
25627;SDS011;40915;50.826;4.356;2024-02-16T10:30:45;10.13;;;5.32;;
25627;SDS011;40915;50.826;4.356;2024-02-16T10:33:12;10.32;;;5.63;;
25627;SDS011;40915;50.826;4.356;2024-02-16T10:35:37;13.90;;;5.30;;
25627;SDS011;40915;50.826;4.356;2024-02-16T10:38:06;12.90;;;5.63;;
25627;SDS011;40915;50.826;4.356;2024-02-16T10:40:39;10.07;;;5.38;;
25627;SDS011;40915;50.826;4.356;2024-02-16T10:43:05;12.35;;;5.85;;
25627;SDS011;40915;50.826;4.356;2024-02-16T10:45:35;11.98;;;5.97;;
25627;SDS011;40915;50.826;4.356;2024-02-16T10:48:02;11.45;;;6.07;;
25627;SDS011;40915;50.826;4.356;2024-02-16T10:50:29;15.48;;;6.47;;
25627;SDS011;40915;50.826;4.356;2024-02-16T10:52:57;14.00;;;6.38;;
25627;SDS011;40915;50.826;4.356;2024-02-16T10:55:29;15.85;;;6.47;;
25627;SDS011;40915;50.826;4.356;2024-02-16T10:57:56;12.20;;;6.32;;
25627;SDS011;40915;50.826;4.356;2024-02-16T11:00:22;12.15;;;5.65;;
25627;SDS011;40915;50.826;4.356;2024-02-16T11:02:55;16.08;;;7.10;;
25627;SDS011;40915;50.826;4.356;2024-02-16T11:05:36;14.27;;;6.80;;
25627;SDS011;40915;50.826;4.356;2024-02-16T11:08:14;13.52;;;6.68;;
25627;SDS011;40915;50.826;4.356;2024-02-16T11:10:41;13.05;;;6.57;;
25627;SDS011;40915;50.826;4.356;2024-02-16T11:13:22;14.50;;;7.07;;
25627;SDS011;40915;50.826;4.356;2024-02-16T11:16:08;15.45;;;6.90;;
25627;SDS011;40915;50.826;4.356;2024-02-16T11:18:40;19.35;;;7.20;;
25627;SDS011;40915;50.826;4.356;2024-02-16T11:21:16;14.45;;;7.30;;
25627;SDS011;40915;50.826;4.356;2024-02-16T11:23:41;13.07;;;7.38;;
25627;SDS011;40915;50.826;4.356;2024-02-16T11:26:11;16.42;;;7.93;;
25627;SDS011;40915;50.826;4.356;2024-02-16T11:28:39;18.80;;;8.10;;
25627;SDS011;40915;50.826;4.356;2024-02-16T11:31:06;14.38;;;7.90;;
25627;SDS011;40915;50.826;4.356;2024-02-16T11:33:33;14.68;;;8.65;;
25627;SDS011;40915;50.826;4.356;2024-02-16T11:35:59;14.75;;;8.60;;
25627;SDS011;40915;50.826;4.356;2024-02-16T11:38:30;17.98;;;9.40;;
25627;SDS011;40915;50.826;4.356;2024-02-16T11:41:00;20.08;;;9.02;;
25627;SDS011;40915;50.826;4.356;2024-02-16T11:43:30;17.63;;;9.57;;
25627;SDS011;40915;50.826;4.356;2024-02-16T11:45:57;16.10;;;9.45;;
25627;SDS011;40915;50.826;4.356;2024-02-16T11:48:24;17.23;;;8.77;;
25627;SDS011;40915;50.826;4.356;2024-02-16T11:50:58;16.35;;;9.65;;
25627;SDS011;40915;50.826;4.356;2024-02-16T11:53:25;15.65;;;9.70;;
25627;SDS011;40915;50.826;4.356;2024-02-16T11:55:52;18.58;;;9.48;;
25627;SDS011;40915;50.826;4.356;2024-02-16T11:58:17;15.48;;;8.80;;
25627;SDS011;40915;50.826;4.356;2024-02-16T12:00:44;13.90;;;8.65;;
25627;SDS011;40915;50.826;4.356;2024-02-16T12:03:11;14.90;;;8.68;;
25627;SDS011;40915;50.826;4.356;2024-02-16T12:05:37;14.40;;;8.45;;
25627;SDS011;40915;50.826;4.356;2024-02-16T12:08:03;13.90;;;8.15;;
25627;SDS011;40915;50.826;4.356;2024-02-16T12:10:31;15.38;;;8.25;;
25627;SDS011;40915;50.826;4.356;2024-02-16T12:12:57;13.55;;;8.05;;
25627;SDS011;40915;50.826;4.356;2024-02-16T12:15:23;10.63;;;7.88;;
25627;SDS011;40915;50.826;4.356;2024-02-16T12:17:57;12.98;;;8.13;;
25627;SDS011;40915;50.826;4.356;2024-02-16T12:20:25;13.00;;;9.18;;
25627;SDS011;40915;50.826;4.356;2024-02-16T12:22:51;14.02;;;8.27;;
25627;SDS011;40915;50.826;4.356;2024-02-16T12:25:16;10.20;;;7.25;;
25627;SDS011;40915;50.826;4.356;2024-02-16T12:27:42;13.32;;;8.15;;
25627;SDS011;40915;50.826;4.356;2024-02-16T12:30:08;8.25;;;7.32;;
25627;SDS011;40915;50.826;4.356;2024-02-16T12:32:34;11.23;;;8.02;;
25627;SDS011;40915;50.826;4.356;2024-02-16T12:35:00;8.57;;;7.25;;
25627;SDS011;40915;50.826;4.356;2024-02-16T12:37:25;8.77;;;6.50;;
25627;SDS011;40915;50.826;4.356;2024-02-16T12:39:51;8.77;;;6.57;;
25627;SDS011;40915;50.826;4.356;2024-02-16T12:42:17;8.48;;;6.50;;
25627;SDS011;40915;50.826;4.356;2024-02-16T12:44:42;7.88;;;6.40;;
25627;SDS011;40915;50.826;4.356;2024-02-16T12:47:08;10.15;;;7.47;;
25627;SDS011;40915;50.826;4.356;2024-02-16T12:49:33;10.25;;;7.28;;
25627;SDS011;40915;50.826;4.356;2024-02-16T12:52:00;9.75;;;7.68;;
25627;SDS011;40915;50.826;4.356;2024-02-16T12:54:26;9.63;;;7.63;;
25627;SDS011;40915;50.826;4.356;2024-02-16T12:56:52;10.27;;;7.68;;
25627;SDS011;40915;50.826;4.356;2024-02-16T12:59:18;9.15;;;7.78;;
25627;SDS011;40915;50.826;4.356;2024-02-16T13:01:44;9.40;;;7.60;;
25627;SDS011;40915;50.826;4.356;2024-02-16T13:04:11;9.68;;;7.95;;
25627;SDS011;40915;50.826;4.356;2024-02-16T13:06:37;11.23;;;8.13;;
25627;SDS011;40915;50.826;4.356;2024-02-16T13:09:03;11.75;;;8.68;;
25627;SDS011;40915;50.826;4.356;2024-02-16T13:11:29;11.43;;;8.10;;
25627;SDS011;40915;50.826;4.356;2024-02-16T13:13:55;11.35;;;8.63;;
25627;SDS011;40915;50.826;4.356;2024-02-16T13:16:20;10.77;;;8.45;;
25627;SDS011;40915;50.826;4.356;2024-02-16T13:18:46;10.45;;;8.82;;
25627;SDS011;40915;50.826;4.356;2024-02-16T13:21:12;9.80;;;8.10;;
25627;SDS011;40915;50.826;4.356;2024-02-16T13:23:37;9.95;;;8.05;;
25627;SDS011;40915;50.826;4.356;2024-02-16T13:26:03;9.75;;;8.02;;
25627;SDS011;40915;50.826;4.356;2024-02-16T13:28:29;11.30;;;8.85;;
25627;SDS011;40915;50.826;4.356;2024-02-16T13:30:55;11.73;;;8.32;;
25627;SDS011;40915;50.826;4.356;2024-02-16T13:33:21;9.45;;;7.97;;
25627;SDS011;40915;50.826;4.356;2024-02-16T13:35:46;9.75;;;7.50;;
25627;SDS011;40915;50.826;4.356;2024-02-16T13:38:12;11.57;;;9.15;;
25627;SDS011;40915;50.826;4.356;2024-02-16T13:40:39;7.93;;;6.95;;
25627;SDS011;40915;50.826;4.356;2024-02-16T13:43:04;8.75;;;7.07;;
25627;SDS011;40915;50.826;4.356;2024-02-16T13:45:47;10.10;;;6.60;;
25627;SDS011;40915;50.826;4.356;2024-02-16T13:48:17;11.13;;;7.85;;
25627;SDS011;40915;50.826;4.356;2024-02-16T13:50:46;9.57;;;7.30;;
25627;SDS011;40915;50.826;4.356;2024-02-16T13:53:13;7.93;;;6.75;;
25627;SDS011;40915;50.826;4.356;2024-02-16T13:55:39;8.70;;;7.10;;
25627;SDS011;40915;50.826;4.356;2024-02-16T13:58:06;9.05;;;6.53;;
25627;SDS011;40915;50.826;4.356;2024-02-16T14:00:31;7.72;;;6.35;;
25627;SDS011;40915;50.826;4.356;2024-02-16T14:02:57;7.40;;;6.22;;
25627;SDS011;40915;50.826;4.356;2024-02-16T14:05:23;7.85;;;6.32;;
25627;SDS011;40915;50.826;4.356;2024-02-16T14:07:50;8.73;;;6.85;;
25627;SDS011;40915;50.826;4.356;2024-02-16T14:10:16;6.72;;;6.03;;
25627;SDS011;40915;50.826;4.356;2024-02-16T14:12:44;6.43;;;5.70;;
25627;SDS011;40915;50.826;4.356;2024-02-16T14:15:10;5.65;;;4.88;;
25627;SDS011;40915;50.826;4.356;2024-02-16T14:17:40;7.47;;;5.50;;
25627;SDS011;40915;50.826;4.356;2024-02-16T14:20:07;6.95;;;5.03;;
25627;SDS011;40915;50.826;4.356;2024-02-16T14:22:32;5.78;;;4.28;;
25627;SDS011;40915;50.826;4.356;2024-02-16T14:24:59;6.43;;;4.45;;
25627;SDS011;40915;50.826;4.356;2024-02-16T14:27:24;4.95;;;4.43;;
25627;SDS011;40915;50.826;4.356;2024-02-16T14:29:50;4.63;;;4.18;;
25627;SDS011;40915;50.826;4.356;2024-02-16T14:32:16;5.88;;;4.20;;
25627;SDS011;40915;50.826;4.356;2024-02-16T14:34:42;7.00;;;4.30;;
25627;SDS011;40915;50.826;4.356;2024-02-16T14:37:09;6.03;;;4.40;;
25627;SDS011;40915;50.826;4.356;2024-02-16T14:39:35;4.63;;;3.45;;
25627;SDS011;40915;50.826;4.356;2024-02-16T14:42:01;7.53;;;3.65;;